sensor_id;sensor_type;location;lat;lon;timestamp;pressure;altitude;pressure_sealevel;temperature;humidity
41264;BME280;26998;48.714;9.414;2023-08-06T00:01:52;98077.84;;;14.77;100.00
41264;BME280;26998;48.714;9.414;2023-08-06T00:04:19;98078.09;;;14.76;100.00
41264;BME280;26998;48.714;9.414;2023-08-06T00:06:46;98074.09;;;14.78;100.00
41264;BME280;26998;48.714;9.414;2023-08-06T00:09:13;98072.38;;;14.72;100.00
41264;BME280;26998;48.714;9.414;2023-08-06T00:11:39;98073.69;;;14.70;100.00
41264;BME280;26998;48.714;9.414;2023-08-06T00:14:06;98066.84;;;14.62;100.00
41264;BME280;26998;48.714;9.414;2023-08-06T00:16:34;98066.34;;;14.65;100.00
41264;BME280;26998;48.714;9.414;2023-08-06T00:19:00;98066.19;;;14.55;100.00
41264;BME280;26998;48.714;9.414;2023-08-06T00:21:27;98062.91;;;14.53;100.00
41264;BME280;26998;48.714;9.414;2023-08-06T00:23:53;98068.16;;;14.48;100.00
41264;BME280;26998;48.714;9.414;2023-08-06T00:26:20;98071.13;;;14.46;100.00
41264;BME280;26998;48.714;9.414;2023-08-06T00:28:47;98062.94;;;14.41;100.00
41264;BME280;26998;48.714;9.414;2023-08-06T00:31:14;98067.63;;;14.46;100.00
41264;BME280;26998;48.714;9.414;2023-08-06T00:33:40;98069.22;;;14.47;100.00
41264;BME280;26998;48.714;9.414;2023-08-06T00:36:07;98066.28;;;14.48;100.00
41264;BME280;26998;48.714;9.414;2023-08-06T00:38:33;98065.31;;;14.38;100.00
41264;BME280;26998;48.714;9.414;2023-08-06T00:41:01;98060.56;;;14.28;100.00
41264;BME280;26998;48.714;9.414;2023-08-06T00:43:29;98053.31;;;14.28;100.00
41264;BME280;26998;48.714;9.414;2023-08-06T00:45:55;98050.41;;;14.30;100.00
41264;BME280;26998;48.714;9.414;2023-08-06T00:48:22;98057.06;;;14.27;100.00
41264;BME280;26998;48.714;9.414;2023-08-06T00:50:49;98066.28;;;14.31;100.00
41264;BME280;26998;48.714;9.414;2023-08-06T00:53:15;98055.81;;;14.18;100.00
41264;BME280;26998;48.714;9.414;2023-08-06T00:55:44;98048.75;;;14.29;100.00
41264;BME280;26998;48.714;9.414;2023-08-06T00:58:11;98046.38;;;14.32;100.00
41264;BME280;26998;48.714;9.414;2023-08-06T01:00:40;98047.34;;;14.26;100.00
41264;BME280;26998;48.714;9.414;2023-08-06T01:03:09;98054.06;;;14.24;100.00
41264;BME280;26998;48.714;9.414;2023-08-06T01:05:36;98052.06;;;14.19;100.00
41264;BME280;26998;48.714;9.414;2023-08-06T01:08:42;98047.28;;;14.21;100.00
41264;BME280;26998;48.714;9.414;2023-08-06T01:13:55;98041.22;;;14.14;100.00
41264;BME280;26998;48.714;9.414;2023-08-06T01:16:25;98034.72;;;14.10;100.00
41264;BME280;26998;48.714;9.414;2023-08-06T01:18:55;98041.03;;;14.04;100.00
41264;BME280;26998;48.714;9.414;2023-08-06T01:21:24;98039.09;;;13.99;100.00
41264;BME280;26998;48.714;9.414;2023-08-06T01:23:50;98041.66;;;13.94;100.00
41264;BME280;26998;48.714;9.414;2023-08-06T01:26:48;98035.16;;;13.90;100.00
41264;BME280;26998;48.714;9.414;2023-08-06T01:32:05;98026.16;;;13.84;100.00
41264;BME280;26998;48.714;9.414;2023-08-06T01:34:33;98030.16;;;13.82;100.00
41264;BME280;26998;48.714;9.414;2023-08-06T01:37:00;98031.78;;;13.83;100.00
41264;BME280;26998;48.714;9.414;2023-08-06T01:39:36;98032.38;;;13.73;100.00
41264;BME280;26998;48.714;9.414;2023-08-06T01:42:03;98024.31;;;13.73;100.00
41264;BME280;26998;48.714;9.414;2023-08-06T01:44:30;98037.91;;;13.67;100.00
41264;BME280;26998;48.714;9.414;2023-08-06T01:46:57;98026.69;;;13.70;100.00
41264;BME280;26998;48.714;9.414;2023-08-06T01:49:23;98019.34;;;13.65;100.00
41264;BME280;26998;48.714;9.414;2023-08-06T01:51:50;98011.31;;;13.65;100.00
41264;BME280;26998;48.714;9.414;2023-08-06T01:54:20;98017.16;;;13.62;100.00
41264;BME280;26998;48.714;9.414;2023-08-06T01:56:46;98011.38;;;13.70;100.00
41264;BME280;26998;48.714;9.414;2023-08-06T01:59:15;98008.94;;;13.69;100.00
41264;BME280;26998;48.714;9.414;2023-08-06T02:01:42;98015.44;;;13.84;100.00
41264;BME280;26998;48.714;9.414;2023-08-06T02:04:08;98013.41;;;13.92;100.00
41264;BME280;26998;48.714;9.414;2023-08-06T02:06:35;98001.22;;;13.72;100.00
41264;BME280;26998;48.714;9.414;2023-08-06T02:09:02;98000.09;;;13.68;100.00
41264;BME280;26998;48.714;9.414;2023-08-06T02:11:28;97998.44;;;13.67;100.00
41264;BME280;26998;48.714;9.414;2023-08-06T02:13:55;97994.94;;;13.67;100.00
41264;BME280;26998;48.714;9.414;2023-08-06T02:16:22;97996.47;;;13.62;100.00
41264;BME280;26998;48.714;9.414;2023-08-06T02:18:49;98002.91;;;13.61;100.00
41264;BME280;26998;48.714;9.414;2023-08-06T02:21:15;97997.88;;;13.65;100.00
41264;BME280;26998;48.714;9.414;2023-08-06T02:23:42;97997.41;;;13.68;100.00
41264;BME280;26998;48.714;9.414;2023-08-06T02:26:09;97994.78;;;13.73;100.00
41264;BME280;26998;48.714;9.414;2023-08-06T02:28:35;97992.38;;;13.72;100.00
41264;BME280;26998;48.714;9.414;2023-08-06T02:31:02;97984.69;;;13.63;100.00
41264;BME280;26998;48.714;9.414;2023-08-06T02:33:29;97977.09;;;13.60;100.00
41264;BME280;26998;48.714;9.414;2023-08-06T02:36:00;97982.31;;;13.67;100.00
41264;BME280;26998;48.714;9.414;2023-08-06T02:38:26;97979.31;;;13.63;100.00
41264;BME280;26998;48.714;9.414;2023-08-06T02:40:53;97973.84;;;13.58;100.00
41264;BME280;26998;48.714;9.414;2023-08-06T02:43:19;97974.34;;;13.55;100.00
41264;BME280;26998;48.714;9.414;2023-08-06T02:45:46;97968.13;;;13.55;100.00
41264;BME280;26998;48.714;9.414;2023-08-06T02:48:12;97963.34;;;13.57;100.00
41264;BME280;26998;48.714;9.414;2023-08-06T02:50:41;97966.38;;;13.49;100.00
41264;BME280;26998;48.714;9.414;2023-08-06T02:53:08;97961.28;;;13.47;100.00
41264;BME280;26998;48.714;9.414;2023-08-06T02:55:35;97977.25;;;13.54;100.00
41264;BME280;26998;48.714;9.414;2023-08-06T02:58:03;97962.19;;;13.53;100.00
41264;BME280;26998;48.714;9.414;2023-08-06T03:00:33;97965.91;;;13.52;100.00
41264;BME280;26998;48.714;9.414;2023-08-06T03:02:59;97961.97;;;13.43;100.00
41264;BME280;26998;48.714;9.414;2023-08-06T03:05:26;97950.09;;;13.38;100.00
41264;BME280;26998;48.714;9.414;2023-08-06T03:07:52;97963.50;;;13.38;100.00
41264;BME280;26998;48.714;9.414;2023-08-06T03:10:19;97957.81;;;13.23;100.00
41264;BME280;26998;48.714;9.414;2023-08-06T03:12:46;97959.34;;;13.19;100.00
41264;BME280;26998;48.714;9.414;2023-08-06T03:15:12;97958.28;;;13.20;100.00
41264;BME280;26998;48.714;9.414;2023-08-06T03:17:41;97957.72;;;13.18;100.00
41264;BME280;26998;48.714;9.414;2023-08-06T03:20:08;97954.78;;;13.08;100.00
41264;BME280;26998;48.714;9.414;2023-08-06T03:22:35;97951.56;;;13.06;100.00
41264;BME280;26998;48.714;9.414;2023-08-06T03:25:02;97955.28;;;13.05;100.00
41264;BME280;26998;48.714;9.414;2023-08-06T03:27:30;97950.84;;;12.99;100.00
41264;BME280;26998;48.714;9.414;2023-08-06T03:29:57;97948.41;;;12.97;100.00
41264;BME280;26998;48.714;9.414;2023-08-06T03:32:24;97948.06;;;12.93;100.00
41264;BME280;26998;48.714;9.414;2023-08-06T03:34:50;97946.06;;;12.89;100.00
41264;BME280;26998;48.714;9.414;2023-08-06T03:37:17;97948.19;;;12.87;100.00
41264;BME280;26998;48.714;9.414;2023-08-06T03:39:44;97946.41;;;12.92;100.00
41264;BME280;26998;48.714;9.414;2023-08-06T03:42:10;97945.47;;;12.99;100.00
41264;BME280;26998;48.714;9.414;2023-08-06T03:44:37;97947.13;;;13.00;100.00
41264;BME280;26998;48.714;9.414;2023-08-06T03:47:04;97940.22;;;13.04;100.00
41264;BME280;26998;48.714;9.414;2023-08-06T03:49:30;97943.13;;;13.14;100.00
41264;BME280;26998;48.714;9.414;2023-08-06T03:51:57;97941.38;;;13.20;100.00
41264;BME280;26998;48.714;9.414;2023-08-06T03:54:23;97936.81;;;13.20;100.00
41264;BME280;26998;48.714;9.414;2023-08-06T03:56:50;97945.66;;;13.21;100.00
41264;BME280;26998;48.714;9.414;2023-08-06T03:59:16;97949.16;;;13.33;100.00
41264;BME280;26998;48.714;9.414;2023-08-06T04:01:43;97942.91;;;13.27;100.00
41264;BME280;26998;48.714;9.414;2023-08-06T04:04:10;97947.81;;;13.30;100.00
41264;BME280;26998;48.714;9.414;2023-08-06T04:06:37;97952.91;;;13.20;100.00
41264;BME280;26998;48.714;9.414;2023-08-06T04:09:07;97941.63;;;13.18;100.00
41264;BME280;26998;48.714;9.414;2023-08-06T04:11:36;97933.34;;;13.08;100.00
41264;BME280;26998;48.714;9.414;2023-08-06T04:14:03;97945.00;;;13.02;100.00
41264;BME280;26998;48.714;9.414;2023-08-06T04:16:31;97930.56;;;13.03;100.00
41264;BME280;26998;48.714;9.414;2023-08-06T04:18:58;97920.16;;;13.18;100.00
41264;BME280;26998;48.714;9.414;2023-08-06T04:21:26;97923.97;;;13.22;100.00
41264;BME280;26998;48.714;9.414;2023-08-06T04:23:56;97925.50;;;13.30;100.00
41264;BME280;26998;48.714;9.414;2023-08-06T04:26:23;97945.38;;;13.46;100.00
41264;BME280;26998;48.714;9.414;2023-08-06T04:28:50;97953.22;;;13.47;100.00
41264;BME280;26998;48.714;9.414;2023-08-06T04:31:17;97963.16;;;13.47;100.00
41264;BME280;26998;48.714;9.414;2023-08-06T04:33:44;97972.59;;;13.49;100.00
41264;BME280;26998;48.714;9.414;2023-08-06T04:36:12;97984.16;;;13.50;100.00
41264;BME280;26998;48.714;9.414;2023-08-06T04:38:39;97987.78;;;13.44;100.00
41264;BME280;26998;48.714;9.414;2023-08-06T04:41:06;98000.81;;;13.52;100.00
41264;BME280;26998;48.714;9.414;2023-08-06T04:43:34;98014.72;;;13.49;100.00
41264;BME280;26998;48.714;9.414;2023-08-06T04:46:01;98035.63;;;13.47;100.00
41264;BME280;26998;48.714;9.414;2023-08-06T04:48:28;98056.28;;;13.34;100.00
41264;BME280;26998;48.714;9.414;2023-08-06T04:50:55;98063.50;;;13.46;100.00
41264;BME280;26998;48.714;9.414;2023-08-06T04:53:22;98080.53;;;13.51;100.00
41264;BME280;26998;48.714;9.414;2023-08-06T04:55:49;98073.81;;;13.37;100.00
41264;BME280;26998;48.714;9.414;2023-08-06T04:58:16;98071.78;;;13.44;100.00
41264;BME280;26998;48.714;9.414;2023-08-06T05:00:43;98065.16;;;13.47;100.00
41264;BME280;26998;48.714;9.414;2023-08-06T05:03:10;98060.34;;;13.49;100.00
41264;BME280;26998;48.714;9.414;2023-08-06T05:05:40;98063.75;;;13.44;100.00
41264;BME280;26998;48.714;9.414;2023-08-06T05:08:07;98051.59;;;13.42;100.00
41264;BME280;26998;48.714;9.414;2023-08-06T05:10:35;98052.06;;;13.38;100.00
41264;BME280;26998;48.714;9.414;2023-08-06T05:13:02;98059.06;;;13.51;100.00
41264;BME280;26998;48.714;9.414;2023-08-06T05:15:29;98060.34;;;13.49;100.00
41264;BME280;26998;48.714;9.414;2023-08-06T05:18:00;98071.06;;;13.60;100.00
41264;BME280;26998;48.714;9.414;2023-08-06T05:20:26;98076.91;;;13.57;100.00
41264;BME280;26998;48.714;9.414;2023-08-06T05:22:53;98095.00;;;13.62;100.00
41264;BME280;26998;48.714;9.414;2023-08-06T05:25:21;98109.22;;;13.74;100.00
41264;BME280;26998;48.714;9.414;2023-08-06T05:27:47;98117.03;;;13.76;100.00
41264;BME280;26998;48.714;9.414;2023-08-06T05:30:14;98120.78;;;13.75;100.00
41264;BME280;26998;48.714;9.414;2023-08-06T05:32:42;98132.69;;;13.67;100.00
41264;BME280;26998;48.714;9.414;2023-08-06T05:35:09;98167.13;;;13.82;100.00
41264;BME280;26998;48.714;9.414;2023-08-06T05:37:36;98213.91;;;14.09;100.00
41264;BME280;26998;48.714;9.414;2023-08-06T05:40:03;98292.88;;;14.96;100.00
41264;BME280;26998;48.714;9.414;2023-08-06T05:42:30;98375.97;;;14.81;100.00
41264;BME280;26998;48.714;9.414;2023-08-06T05:44:57;98378.53;;;14.64;100.00
41264;BME280;26998;48.714;9.414;2023-08-06T05:47:24;98369.66;;;14.63;100.00
41264;BME280;26998;48.714;9.414;2023-08-06T05:49:51;98371.53;;;14.74;100.00
41264;BME280;26998;48.714;9.414;2023-08-06T05:52:18;98360.91;;;14.56;100.00
41264;BME280;26998;48.714;9.414;2023-08-06T05:54:45;98364.47;;;14.85;100.00
41264;BME280;26998;48.714;9.414;2023-08-06T05:57:12;98433.63;;;15.65;100.00
41264;BME280;26998;48.714;9.414;2023-08-06T05:59:40;98448.03;;;15.71;100.00
41264;BME280;26998;48.714;9.414;2023-08-06T06:02:07;98454.78;;;15.45;100.00
41264;BME280;26998;48.714;9.414;2023-08-06T06:04:34;98471.78;;;15.45;100.00
41264;BME280;26998;48.714;9.414;2023-08-06T06:07:01;98477.31;;;15.27;100.00
41264;BME280;26998;48.714;9.414;2023-08-06T06:09:28;98459.78;;;15.13;100.00
41264;BME280;26998;48.714;9.414;2023-08-06T06:11:55;98463.31;;;15.01;100.00
41264;BME280;26998;48.714;9.414;2023-08-06T06:14:22;98451.03;;;14.94;100.00
41264;BME280;26998;48.714;9.414;2023-08-06T06:16:49;98441.22;;;14.88;100.00
41264;BME280;26998;48.714;9.414;2023-08-06T06:19:16;98412.91;;;14.85;100.00
41264;BME280;26998;48.714;9.414;2023-08-06T06:21:43;98422.38;;;14.76;100.00
41264;BME280;26998;48.714;9.414;2023-08-06T06:24:10;98431.28;;;14.76;100.00
41264;BME280;26998;48.714;9.414;2023-08-06T06:26:37;98417.72;;;14.83;100.00
41264;BME280;26998;48.714;9.414;2023-08-06T06:29:04;98436.19;;;14.79;100.00
41264;BME280;26998;48.714;9.414;2023-08-06T06:31:33;98462.06;;;14.92;100.00
41264;BME280;26998;48.714;9.414;2023-08-06T06:34:00;98474.53;;;15.10;100.00
41264;BME280;26998;48.714;9.414;2023-08-06T06:36:28;98469.13;;;15.22;100.00
41264;BME280;26998;48.714;9.414;2023-08-06T06:38:55;98491.59;;;15.28;100.00
41264;BME280;26998;48.714;9.414;2023-08-06T06:41:22;98509.50;;;15.10;100.00
41264;BME280;26998;48.714;9.414;2023-08-06T06:43:49;98514.69;;;14.88;100.00
41264;BME280;26998;48.714;9.414;2023-08-06T06:46:15;98509.19;;;14.71;100.00
41264;BME280;26998;48.714;9.414;2023-08-06T06:48:42;98511.53;;;14.68;100.00
41264;BME280;26998;48.714;9.414;2023-08-06T06:51:09;98495.59;;;14.66;100.00
41264;BME280;26998;48.714;9.414;2023-08-06T06:53:36;98479.00;;;14.81;100.00
41264;BME280;26998;48.714;9.414;2023-08-06T06:56:05;98495.97;;;14.82;100.00
41264;BME280;26998;48.714;9.414;2023-08-06T06:58:32;98499.13;;;14.90;100.00
41264;BME280;26998;48.714;9.414;2023-08-06T07:00:59;98507.75;;;15.16;100.00
41264;BME280;26998;48.714;9.414;2023-08-06T07:03:26;98502.16;;;15.17;100.00
41264;BME280;26998;48.714;9.414;2023-08-06T07:05:57;98510.69;;;15.14;100.00
41264;BME280;26998;48.714;9.414;2023-08-06T07:08:24;98489.78;;;15.05;100.00
41264;BME280;26998;48.714;9.414;2023-08-06T07:10:59;98493.13;;;15.23;100.00
41264;BME280;26998;48.714;9.414;2023-08-06T07:13:26;98506.34;;;15.25;100.00
41264;BME280;26998;48.714;9.414;2023-08-06T07:15:54;98501.78;;;15.14;100.00
41264;BME280;26998;48.714;9.414;2023-08-06T07:18:21;98509.28;;;15.00;100.00
41264;BME280;26998;48.714;9.414;2023-08-06T07:20:52;98487.09;;;14.93;100.00
41264;BME280;26998;48.714;9.414;2023-08-06T07:23:20;98490.38;;;14.83;100.00
41264;BME280;26998;48.714;9.414;2023-08-06T07:25:48;98493.03;;;14.60;100.00
41264;BME280;26998;48.714;9.414;2023-08-06T07:28:15;98501.56;;;14.57;100.00
41264;BME280;26998;48.714;9.414;2023-08-06T07:30:43;98491.88;;;14.67;100.00
41264;BME280;26998;48.714;9.414;2023-08-06T07:33:11;98493.63;;;14.73;100.00
41264;BME280;26998;48.714;9.414;2023-08-06T07:35:39;98494.69;;;14.84;100.00
41264;BME280;26998;48.714;9.414;2023-08-06T07:38:05;98494.09;;;14.70;100.00
41264;BME280;26998;48.714;9.414;2023-08-06T07:40:36;98464.34;;;14.42;100.00
41264;BME280;26998;48.714;9.414;2023-08-06T07:43:05;98418.50;;;14.25;100.00
41264;BME280;26998;48.714;9.414;2023-08-06T07:45:34;98367.19;;;14.26;100.00
41264;BME280;26998;48.714;9.414;2023-08-06T07:48:01;98349.09;;;14.33;100.00
41264;BME280;26998;48.714;9.414;2023-08-06T07:50:29;98360.28;;;14.42;100.00
41264;BME280;26998;48.714;9.414;2023-08-06T07:52:56;98371.75;;;14.38;100.00
41264;BME280;26998;48.714;9.414;2023-08-06T07:55:23;98403.09;;;14.44;100.00
41264;BME280;26998;48.714;9.414;2023-08-06T07:57:50;98391.53;;;14.43;100.00
41264;BME280;26998;48.714;9.414;2023-08-06T08:00:16;98379.03;;;14.49;100.00
41264;BME280;26998;48.714;9.414;2023-08-06T08:02:43;98388.38;;;14.46;100.00
41264;BME280;26998;48.714;9.414;2023-08-06T08:05:12;98407.09;;;14.65;100.00
41264;BME280;26998;48.714;9.414;2023-08-06T08:07:38;98423.56;;;14.68;100.00
41264;BME280;26998;48.714;9.414;2023-08-06T08:10:06;98469.53;;;14.90;100.00
41264;BME280;26998;48.714;9.414;2023-08-06T08:12:33;98478.28;;;15.21;100.00
41264;BME280;26998;48.714;9.414;2023-08-06T08:15:01;98487.28;;;15.27;100.00
41264;BME280;26998;48.714;9.414;2023-08-06T08:17:30;98516.06;;;15.78;100.00
41264;BME280;26998;48.714;9.414;2023-08-06T08:19:57;98544.22;;;15.70;100.00
41264;BME280;26998;48.714;9.414;2023-08-06T08:22:24;98534.13;;;15.78;100.00
41264;BME280;26998;48.714;9.414;2023-08-06T08:24:51;98534.94;;;15.66;100.00
41264;BME280;26998;48.714;9.414;2023-08-06T08:27:18;98535.69;;;15.50;100.00
41264;BME280;26998;48.714;9.414;2023-08-06T08:29:44;98544.22;;;15.70;100.00
41264;BME280;26998;48.714;9.414;2023-08-06T08:32:12;98549.47;;;15.65;100.00
41264;BME280;26998;48.714;9.414;2023-08-06T08:34:40;98538.69;;;15.65;100.00
41264;BME280;26998;48.714;9.414;2023-08-06T08:37:07;98540.72;;;15.46;100.00
41264;BME280;26998;48.714;9.414;2023-08-06T08:39:33;98545.16;;;15.53;100.00
41264;BME280;26998;48.714;9.414;2023-08-06T08:42:00;98546.03;;;15.30;100.00
41264;BME280;26998;48.714;9.414;2023-08-06T08:44:27;98537.59;;;15.26;100.00
41264;BME280;26998;48.714;9.414;2023-08-06T08:46:54;98543.94;;;15.08;100.00
41264;BME280;26998;48.714;9.414;2023-08-06T08:49:23;98550.00;;;15.15;100.00
41264;BME280;26998;48.714;9.414;2023-08-06T08:51:52;98549.75;;;15.17;100.00
41264;BME280;26998;48.714;9.414;2023-08-06T08:54:23;98561.47;;;15.22;100.00
41264;BME280;26998;48.714;9.414;2023-08-06T08:56:50;98561.00;;;15.25;100.00
41264;BME280;26998;48.714;9.414;2023-08-06T08:59:19;98558.31;;;15.14;100.00
41264;BME280;26998;48.714;9.414;2023-08-06T09:01:48;98566.28;;;15.20;100.00
41264;BME280;26998;48.714;9.414;2023-08-06T09:04:20;98565.09;;;15.28;100.00
41264;BME280;26998;48.714;9.414;2023-08-06T09:06:53;98559.72;;;15.40;100.00
41264;BME280;26998;48.714;9.414;2023-08-06T09:09:34;98565.97;;;15.57;100.00
41264;BME280;26998;48.714;9.414;2023-08-06T09:12:13;98569.06;;;15.49;100.00
41264;BME280;26998;48.714;9.414;2023-08-06T09:14:41;98567.16;;;15.61;100.00
41264;BME280;26998;48.714;9.414;2023-08-06T09:17:08;98577.81;;;15.80;100.00
41264;BME280;26998;48.714;9.414;2023-08-06T09:19:36;98592.44;;;15.84;100.00
41264;BME280;26998;48.714;9.414;2023-08-06T09:22:05;98720.09;;;16.18;100.00
41264;BME280;26998;48.714;9.414;2023-08-06T09:24:33;98699.94;;;16.21;100.00
41264;BME280;26998;48.714;9.414;2023-08-06T09:27:02;98726.00;;;15.91;100.00
41264;BME280;26998;48.714;9.414;2023-08-06T09:29:31;98711.59;;;15.74;100.00
41264;BME280;26998;48.714;9.414;2023-08-06T09:32:00;98732.56;;;15.84;100.00
41264;BME280;26998;48.714;9.414;2023-08-06T09:34:27;98731.41;;;15.68;100.00
41264;BME280;26998;48.714;9.414;2023-08-06T09:36:57;98700.81;;;15.86;100.00
41264;BME280;26998;48.714;9.414;2023-08-06T09:39:29;98736.88;;;16.08;100.00
41264;BME280;26998;48.714;9.414;2023-08-06T09:42:01;98671.91;;;16.22;100.00
41264;BME280;26998;48.714;9.414;2023-08-06T09:47:17;98645.63;;;16.29;100.00
41264;BME280;26998;48.714;9.414;2023-08-06T09:49:45;98625.25;;;16.21;100.00
41264;BME280;26998;48.714;9.414;2023-08-06T09:52:13;98616.06;;;16.05;100.00
41264;BME280;26998;48.714;9.414;2023-08-06T09:54:39;98649.06;;;16.12;100.00
41264;BME280;26998;48.714;9.414;2023-08-06T09:57:06;98654.34;;;16.07;100.00
41264;BME280;26998;48.714;9.414;2023-08-06T09:59:34;98733.50;;;16.01;100.00
41264;BME280;26998;48.714;9.414;2023-08-06T10:02:13;98723.94;;;16.34;100.00
41264;BME280;26998;48.714;9.414;2023-08-06T10:04:43;98706.53;;;16.42;100.00
41264;BME280;26998;48.714;9.414;2023-08-06T10:07:21;98700.41;;;16.29;100.00
41264;BME280;26998;48.714;9.414;2023-08-06T10:09:47;98751.38;;;16.31;100.00
41264;BME280;26998;48.714;9.414;2023-08-06T10:12:14;98708.81;;;16.33;100.00
41264;BME280;26998;48.714;9.414;2023-08-06T10:14:42;98695.88;;;16.47;100.00
41264;BME280;26998;48.714;9.414;2023-08-06T10:17:14;98717.69;;;16.45;100.00
41264;BME280;26998;48.714;9.414;2023-08-06T10:19:41;98703.03;;;16.41;100.00
41264;BME280;26998;48.714;9.414;2023-08-06T10:22:12;98758.88;;;16.29;100.00
41264;BME280;26998;48.714;9.414;2023-08-06T10:24:53;98859.25;;;16.19;100.00
41264;BME280;26998;48.714;9.414;2023-08-06T10:28:02;98859.69;;;15.81;100.00
41264;BME280;26998;48.714;9.414;2023-08-06T10:30:32;98911.03;;;15.56;100.00
41264;BME280;26998;48.714;9.414;2023-08-06T10:33:02;98977.75;;;15.54;100.00
41264;BME280;26998;48.714;9.414;2023-08-06T10:35:44;99034.56;;;15.52;100.00
41264;BME280;26998;48.714;9.414;2023-08-06T10:43:35;99073.25;;;15.39;100.00
41264;BME280;26998;48.714;9.414;2023-08-06T10:46:03;99088.38;;;15.77;100.00
41264;BME280;26998;48.714;9.414;2023-08-06T10:48:37;99057.03;;;15.83;100.00
41264;BME280;26998;48.714;9.414;2023-08-06T10:51:11;99037.03;;;15.72;100.00
41264;BME280;26998;48.714;9.414;2023-08-06T10:53:47;99072.72;;;15.49;100.00
41264;BME280;26998;48.714;9.414;2023-08-06T10:56:24;99081.63;;;15.31;100.00
41264;BME280;26998;48.714;9.414;2023-08-06T10:58:55;99120.19;;;15.25;100.00
41264;BME280;26998;48.714;9.414;2023-08-06T11:01:24;99120.03;;;14.95;100.00
41264;BME280;26998;48.714;9.414;2023-08-06T11:03:54;99158.72;;;15.25;100.00
41264;BME280;26998;48.714;9.414;2023-08-06T11:06:22;99164.59;;;15.41;100.00
41264;BME280;26998;48.714;9.414;2023-08-06T11:08:51;99148.66;;;15.39;100.00
41264;BME280;26998;48.714;9.414;2023-08-06T11:11:18;99137.50;;;15.36;100.00
41264;BME280;26998;48.714;9.414;2023-08-06T11:13:49;99120.50;;;15.35;100.00
41264;BME280;26998;48.714;9.414;2023-08-06T11:16:24;99093.94;;;15.39;100.00
41264;BME280;26998;48.714;9.414;2023-08-06T11:18:52;99082.53;;;15.43;100.00
41264;BME280;26998;48.714;9.414;2023-08-06T11:21:21;99092.03;;;15.46;100.00
41264;BME280;26998;48.714;9.414;2023-08-06T11:23:48;99146.75;;;15.65;100.00
41264;BME280;26998;48.714;9.414;2023-08-06T11:26:24;99080.84;;;15.67;100.00
41264;BME280;26998;48.714;9.414;2023-08-06T11:28:51;99070.84;;;15.50;100.00
41264;BME280;26998;48.714;9.414;2023-08-06T11:31:22;99131.34;;;15.29;100.00
41264;BME280;26998;48.714;9.414;2023-08-06T11:33:53;99161.28;;;14.89;100.00
41264;BME280;26998;48.714;9.414;2023-08-06T11:36:33;99188.97;;;14.71;100.00
41264;BME280;26998;48.714;9.414;2023-08-06T11:39:01;98439.59;;;14.75;100.00
41264;BME280;26998;48.714;9.414;2023-08-06T11:41:29;98411.28;;;14.72;100.00
41264;BME280;26998;48.714;9.414;2023-08-06T11:43:55;98385.72;;;14.58;100.00
41264;BME280;26998;48.714;9.414;2023-08-06T11:46:23;98455.59;;;14.82;100.00
41264;BME280;26998;48.714;9.414;2023-08-06T11:48:54;98540.88;;;15.16;100.00
41264;BME280;26998;48.714;9.414;2023-08-06T11:51:26;98564.28;;;15.28;100.00
41264;BME280;26998;48.714;9.414;2023-08-06T11:53:58;98585.69;;;15.22;100.00
41264;BME280;26998;48.714;9.414;2023-08-06T11:56:29;98615.31;;;15.34;100.00
41264;BME280;26998;48.714;9.414;2023-08-06T11:58:56;98617.19;;;15.34;100.00
41264;BME280;26998;48.714;9.414;2023-08-06T12:01:23;98640.38;;;15.35;100.00
41264;BME280;26998;48.714;9.414;2023-08-06T12:03:49;98653.50;;;15.43;100.00
41264;BME280;26998;48.714;9.414;2023-08-06T12:06:18;98657.09;;;15.25;100.00
41264;BME280;26998;48.714;9.414;2023-08-06T12:08:46;98669.06;;;15.17;100.00
41264;BME280;26998;48.714;9.414;2023-08-06T12:11:15;98683.69;;;15.21;100.00
41264;BME280;26998;48.714;9.414;2023-08-06T12:13:43;98687.06;;;15.17;100.00
41264;BME280;26998;48.714;9.414;2023-08-06T12:16:12;98841.22;;;14.94;100.00
41264;BME280;26998;48.714;9.414;2023-08-06T12:18:39;98824.91;;;14.89;100.00
41264;BME280;26998;48.714;9.414;2023-08-06T12:21:06;98806.31;;;14.87;100.00
41264;BME280;26998;48.714;9.414;2023-08-06T12:23:33;98830.25;;;14.77;100.00
41264;BME280;26998;48.714;9.414;2023-08-06T12:26:00;98845.63;;;14.70;100.00
41264;BME280;26998;48.714;9.414;2023-08-06T12:28:26;98844.16;;;14.74;100.00
41264;BME280;26998;48.714;9.414;2023-08-06T12:30:53;98834.94;;;14.82;100.00
41264;BME280;26998;48.714;9.414;2023-08-06T12:33:21;98829.22;;;14.78;100.00
41264;BME280;26998;48.714;9.414;2023-08-06T12:35:47;98835.84;;;14.75;100.00
41264;BME280;26998;48.714;9.414;2023-08-06T12:38:14;98848.41;;;14.82;100.00
41264;BME280;26998;48.714;9.414;2023-08-06T12:40:40;98844.53;;;14.77;100.00
41264;BME280;26998;48.714;9.414;2023-08-06T12:43:09;98805.44;;;14.75;100.00
41264;BME280;26998;48.714;9.414;2023-08-06T12:45:43;98805.81;;;14.78;100.00
41264;BME280;26998;48.714;9.414;2023-08-06T12:48:09;98799.53;;;14.85;100.00
41264;BME280;26998;48.714;9.414;2023-08-06T12:50:38;98792.28;;;14.85;100.00
41264;BME280;26998;48.714;9.414;2023-08-06T12:53:05;98806.78;;;14.84;100.00
41264;BME280;26998;48.714;9.414;2023-08-06T12:55:33;98777.19;;;14.84;100.00
41264;BME280;26998;48.714;9.414;2023-08-06T12:58:01;98765.88;;;14.94;100.00
41264;BME280;26998;48.714;9.414;2023-08-06T13:00:28;98760.53;;;15.06;100.00
41264;BME280;26998;48.714;9.414;2023-08-06T13:02:54;98762.72;;;14.97;100.00
41264;BME280;26998;48.714;9.414;2023-08-06T13:05:22;98731.13;;;15.04;100.00
41264;BME280;26998;48.714;9.414;2023-08-06T13:07:51;98757.25;;;15.04;100.00
41264;BME280;26998;48.714;9.414;2023-08-06T13:10:19;98747.19;;;15.11;100.00